Time;durP1;ratioP1;P1;durP2;ratioP2;P2;SDS_P1;SDS_P2;PMS_P1;PMS_P2;Temp;Humidity;BMP_temperature;BMP_pressure;BME280_temperature;BME280_humidity;BME280_pressure;Samples;Min_cycle;Max_cycle;Signal;HPM_P1;HPM_P2
2023/05/07 00:01:28;;;;;;;3.20;2.30;;;;;;;;;;5034631;28;20345;-72
2023/05/07 00:03:53;;;;;;;6.90;2.60;;;;;;;;;;5031051;28;20033;-72
2023/05/07 00:06:19;;;;;;;4.43;2.40;;;;;;;;;;5036888;28;20410;-73
2023/05/07 00:08:44;;;;;;;6.15;2.70;;;;;;;;;;5027687;28;20096;-72
2023/05/07 00:11:10;;;;;;;4.60;2.40;;;;;;;;;;5031873;28;20025;-72
2023/05/07 00:13:35;;;;;;;11.30;2.90;;;;;;;;;;5032411;28;20028;-72
2023/05/07 00:16:01;;;;;;;7.85;2.40;;;;;;;;;;5031481;28;20017;-72
2023/05/07 00:18:26;;;;;;;5.93;2.55;;;;;;;;;;5027735;28;20025;-72
2023/05/07 00:20:51;;;;;;;6.20;2.57;;;;;;;;;;5031788;28;20032;-72
2023/05/07 00:23:17;;;;;;;5.35;2.67;;;;;;;;;;5030679;28;20666;-72
2023/05/07 00:25:42;;;;;;;4.20;2.50;;;;;;;;;;5031009;28;20493;-72
2023/05/07 00:28:07;;;;;;;3.83;2.50;;;;;;;;;;5037339;28;20343;-72
2023/05/07 00:30:32;;;;;;;5.80;2.65;;;;;;;;;;5030491;28;20641;-72
2023/05/07 00:32:57;;;;;;;4.93;2.30;;;;;;;;;;5033503;28;20390;-72
2023/05/07 00:35:23;;;;;;;4.15;2.03;;;;;;;;;;5028500;28;20288;-72
2023/05/07 00:37:48;;;;;;;5.00;2.97;;;;;;;;;;5032464;28;20027;-72
2023/05/07 00:40:14;;;;;;;6.13;2.53;;;;;;;;;;5030162;28;20028;-72
2023/05/07 00:42:39;;;;;;;5.30;2.72;;;;;;;;;;5037557;28;20025;-72
2023/05/07 00:45:05;;;;;;;5.38;2.38;;;;;;;;;;5030523;28;20029;-72
2023/05/07 00:47:30;;;;;;;6.10;2.15;;;;;;;;;;5029396;28;20399;-72
2023/05/07 00:49:56;;;;;;;2.65;1.83;;;;;;;;;;5025574;28;20033;-72
2023/05/07 00:52:25;;;;;;;9.60;2.50;;;;;;;;;;5022654;28;20075;-72
2023/05/07 00:54:50;;;;;;;6.25;2.15;;;;;;;;;;5032312;28;20018;-73
2023/05/07 00:57:15;;;;;;;5.82;2.22;;;;;;;;;;5028692;28;20421;-73
2023/05/07 00:59:41;;;;;;;5.60;2.00;;;;;;;;;;5027139;28;20121;-73
2023/05/07 01:02:06;;;;;;;5.00;2.45;;;;;;;;;;5032473;28;20068;-73
2023/05/07 01:04:32;;;;;;;5.68;2.10;;;;;;;;;;5031904;28;20522;-72
2023/05/07 01:06:57;;;;;;;6.10;2.60;;;;;;;;;;5028882;28;20021;-72
2023/05/07 01:09:23;;;;;;;3.53;1.80;;;;;;;;;;5033983;28;20112;-72
2023/05/07 01:11:50;;;;;;;2.72;1.77;;;;;;;;;;5033412;28;20052;-73
2023/05/07 01:14:15;;;;;;;7.70;2.33;;;;;;;;;;5028929;28;20021;-72
2023/05/07 01:16:41;;;;;;;6.05;3.03;;;;;;;;;;5029268;28;20598;-72
2023/05/07 01:19:07;;;;;;;5.40;2.05;;;;;;;;;;5038435;28;20020;-72
2023/05/07 01:21:34;;;;;;;7.75;1.98;;;;;;;;;;5025721;28;20018;-72
2023/05/07 01:23:59;;;;;;;4.82;2.70;;;;;;;;;;5031704;28;20397;-72
2023/05/07 01:26:25;;;;;;;6.63;2.47;;;;;;;;;;5032428;28;20099;-72
2023/05/07 01:28:50;;;;;;;5.95;3.22;;;;;;;;;;5034277;28;20028;-72
2023/05/07 01:31:16;;;;;;;4.78;2.03;;;;;;;;;;5033501;28;20031;-72
2023/05/07 01:33:43;;;;;;;6.50;2.10;;;;;;;;;;5033052;28;20064;-72
2023/05/07 01:36:08;;;;;;;3.47;1.98;;;;;;;;;;5032214;28;20028;-72
2023/05/07 01:38:35;;;;;;;3.47;2.22;;;;;;;;;;5030990;28;20021;-72
2023/05/07 01:41:00;;;;;;;7.10;1.70;;;;;;;;;;5030717;28;20040;-72
2023/05/07 01:43:25;;;;;;;10.35;1.55;;;;;;;;;;5030975;28;20482;-72
2023/05/07 01:45:52;;;;;;;6.53;1.70;;;;;;;;;;5028547;28;20104;-72
2023/05/07 01:48:17;;;;;;;4.65;1.90;;;;;;;;;;5034747;28;20470;-72
2023/05/07 01:50:43;;;;;;;2.65;1.60;;;;;;;;;;5030182;28;20104;-72
2023/05/07 01:53:09;;;;;;;5.65;1.70;;;;;;;;;;5030783;28;20021;-72
2023/05/07 01:55:34;;;;;;;4.63;2.20;;;;;;;;;;5026402;28;20460;-72
2023/05/07 01:57:59;;;;;;;3.90;1.88;;;;;;;;;;5036421;28;20033;-72
2023/05/07 02:00:24;;;;;;;3.72;1.98;;;;;;;;;;5029835;28;20026;-72
2023/05/07 02:02:50;;;;;;;6.40;1.90;;;;;;;;;;5033856;28;20025;-72
2023/05/07 02:05:15;;;;;;;3.13;1.92;;;;;;;;;;5030175;28;20025;-72
2023/05/07 02:07:40;;;;;;;12.20;2.30;;;;;;;;;;5030351;28;20035;-72
2023/05/07 02:10:06;;;;;;;4.93;1.85;;;;;;;;;;5029096;28;20688;-72
2023/05/07 02:12:31;;;;;;;3.30;2.05;;;;;;;;;;5031395;28;20032;-72
2023/05/07 02:14:56;;;;;;;4.00;1.83;;;;;;;;;;5026627;28;20097;-72
2023/05/07 02:17:21;;;;;;;3.37;1.80;;;;;;;;;;5029371;28;20053;-72
2023/05/07 02:19:46;;;;;;;5.13;2.03;;;;;;;;;;5029956;28;20275;-72
2023/05/07 02:22:11;;;;;;;4.47;2.03;;;;;;;;;;5026699;28;20626;-72
2023/05/07 02:24:37;;;;;;;4.17;1.67;;;;;;;;;;5030390;28;20283;-72
2023/05/07 02:27:03;;;;;;;2.72;1.40;;;;;;;;;;5029840;28;20321;-72
2023/05/07 02:29:28;;;;;;;3.95;1.63;;;;;;;;;;5028562;28;20022;-72
2023/05/07 02:31:53;;;;;;;5.88;1.40;;;;;;;;;;5031977;28;20111;-72
2023/05/07 02:34:19;;;;;;;2.40;1.60;;;;;;;;;;5030652;28;20028;-72
2023/05/07 02:36:44;;;;;;;3.97;1.65;;;;;;;;;;5028972;28;20333;-72
2023/05/07 02:39:09;;;;;;;3.00;1.52;;;;;;;;;;5022094;28;20029;-72
2023/05/07 02:41:34;;;;;;;4.17;1.90;;;;;;;;;;5029843;28;20018;-72
2023/05/07 02:43:59;;;;;;;5.82;2.05;;;;;;;;;;5028977;28;20310;-72
2023/05/07 02:46:25;;;;;;;3.17;1.90;;;;;;;;;;5031095;28;20356;-72
2023/05/07 02:48:50;;;;;;;6.20;1.83;;;;;;;;;;5022165;28;20310;-72
2023/05/07 02:51:17;;;;;;;2.35;1.60;;;;;;;;;;5027832;28;20100;-72
2023/05/07 02:53:42;;;;;;;4.05;2.08;;;;;;;;;;5029754;28;20060;-72
2023/05/07 02:56:07;;;;;;;3.43;1.70;;;;;;;;;;5032582;28;20450;-72
2023/05/07 02:58:32;;;;;;;3.72;1.65;;;;;;;;;;5033615;28;20275;-72
2023/05/07 03:00:58;;;;;;;2.73;1.50;;;;;;;;;;5029811;28;20052;-72
2023/05/07 03:03:23;;;;;;;5.03;1.80;;;;;;;;;;5027063;28;20288;-72
2023/05/07 03:05:49;;;;;;;2.37;1.77;;;;;;;;;;5026202;28;20036;-72
2023/05/07 03:08:14;;;;;;;3.77;1.90;;;;;;;;;;5028344;28;20708;-73
2023/05/07 03:10:39;;;;;;;12.57;1.77;;;;;;;;;;5029180;28;20275;-72
2023/05/07 03:13:05;;;;;;;4.57;1.55;;;;;;;;;;5029733;28;20056;-72
2023/05/07 03:15:30;;;;;;;3.22;1.77;;;;;;;;;;5030487;28;20017;-72
2023/05/07 03:17:55;;;;;;;7.88;2.17;;;;;;;;;;5029772;28;20056;-72
2023/05/07 03:20:20;;;;;;;11.35;2.40;;;;;;;;;;5034519;28;20019;-72
2023/05/07 03:22:46;;;;;;;3.60;1.95;;;;;;;;;;5024279;28;20036;-72
2023/05/07 03:25:12;;;;;;;3.47;1.77;;;;;;;;;;5029771;28;20021;-72
2023/05/07 03:27:37;;;;;;;4.20;1.98;;;;;;;;;;5029211;28;20100;-72
2023/05/07 03:30:03;;;;;;;5.78;1.73;;;;;;;;;;5036030;28;20148;-72
2023/05/07 03:32:28;;;;;;;7.47;2.17;;;;;;;;;;5023624;28;20025;-72
2023/05/07 03:34:53;;;;;;;5.97;1.90;;;;;;;;;;5021456;28;20032;-72
2023/05/07 03:37:19;;;;;;;2.88;2.00;;;;;;;;;;5028673;28;20282;-72
2023/05/07 03:39:44;;;;;;;3.20;1.90;;;;;;;;;;5024853;28;20017;-72
2023/05/07 03:42:09;;;;;;;3.38;1.80;;;;;;;;;;5038409;28;20022;-72
2023/05/07 03:44:36;;;;;;;4.28;1.90;;;;;;;;;;5021432;28;20033;-72
2023/05/07 03:47:01;;;;;;;4.03;2.00;;;;;;;;;;5032140;28;20595;-72
2023/05/07 03:49:26;;;;;;;4.47;2.10;;;;;;;;;;5032301;28;20021;-72
2023/05/07 03:51:51;;;;;;;3.70;2.10;;;;;;;;;;5037611;28;20052;-72
2023/05/07 03:54:16;;;;;;;5.25;2.47;;;;;;;;;;5029214;28;20283;-72
2023/05/07 03:56:42;;;;;;;3.35;2.05;;;;;;;;;;5028937;28;20025;-72
2023/05/07 03:59:07;;;;;;;7.53;1.87;;;;;;;;;;5028632;28;20059;-72
2023/05/07 04:01:32;;;;;;;4.13;2.10;;;;;;;;;;5034495;28;20347;-72
2023/05/07 04:03:57;;;;;;;3.10;2.00;;;;;;;;;;5035320;28;20029;-72
2023/05/07 04:06:23;;;;;;;2.65;1.90;;;;;;;;;;5039725;28;20314;-72
2023/05/07 04:08:48;;;;;;;4.23;2.10;;;;;;;;;;5027878;28;20026;-72
2023/05/07 04:11:13;;;;;;;8.20;2.00;;;;;;;;;;5037996;28;20260;-72
2023/05/07 04:13:38;;;;;;;6.13;2.00;;;;;;;;;;5033097;28;20819;-72
2023/05/07 04:16:05;;;;;;;4.40;2.17;;;;;;;;;;5038658;28;20297;-72
2023/05/07 04:18:30;;;;;;;3.83;1.80;;;;;;;;;;5029369;28;20291;-72
2023/05/07 04:20:55;;;;;;;3.08;1.70;;;;;;;;;;5037817;28;20026;-72
2023/05/07 04:23:20;;;;;;;5.93;2.30;;;;;;;;;;5031242;28;20414;-72
2023/05/07 04:25:45;;;;;;;7.57;1.90;;;;;;;;;;5034679;28;20284;-72
2023/05/07 04:28:11;;;;;;;2.47;1.90;;;;;;;;;;5027516;28;20276;-72
2023/05/07 04:30:36;;;;;;;6.70;2.00;;;;;;;;;;5034166;28;20025;-72
2023/05/07 04:33:01;;;;;;;3.20;1.83;;;;;;;;;;5030094;28;20389;-72
2023/05/07 04:35:27;;;;;;;6.43;1.83;;;;;;;;;;5035160;28;20053;-72
2023/05/07 04:37:52;;;;;;;8.97;2.57;;;;;;;;;;5031757;28;20396;-72
2023/05/07 04:40:17;;;;;;;6.33;2.20;;;;;;;;;;5034543;28;20259;-72
2023/05/07 04:42:42;;;;;;;7.35;2.88;;;;;;;;;;5028913;28;20781;-72
2023/05/07 04:45:08;;;;;;;5.25;2.50;;;;;;;;;;5039646;28;20386;-72
2023/05/07 04:47:33;;;;;;;3.40;1.90;;;;;;;;;;5029290;28;20100;-72
2023/05/07 04:49:59;;;;;;;12.52;2.33;;;;;;;;;;5038115;28;20025;-72
2023/05/07 04:52:24;;;;;;;5.43;1.88;;;;;;;;;;5028346;28;20470;-72
2023/05/07 04:54:49;;;;;;;5.97;2.30;;;;;;;;;;5031692;28;20021;-72
2023/05/07 04:57:15;;;;;;;6.00;2.30;;;;;;;;;;5028463;28;20014;-72
2023/05/07 04:59:40;;;;;;;4.68;1.98;;;;;;;;;;5030154;28;20029;-72
2023/05/07 05:02:05;;;;;;;6.03;2.40;;;;;;;;;;5031031;28;20022;-72
2023/05/07 05:04:30;;;;;;;3.72;2.30;;;;;;;;;;5032675;28;20338;-72
2023/05/07 05:06:56;;;;;;;2.80;1.90;;;;;;;;;;5030288;28;20040;-72
2023/05/07 05:09:21;;;;;;;4.75;2.17;;;;;;;;;;5033746;28;20322;-72
2023/05/07 05:11:46;;;;;;;8.38;2.05;;;;;;;;;;5018438;28;20041;-72
2023/05/07 05:14:11;;;;;;;7.70;2.07;;;;;;;;;;5030955;28;20568;-72
2023/05/07 05:16:36;;;;;;;6.53;2.10;;;;;;;;;;5029721;28;20334;-72
2023/05/07 05:19:02;;;;;;;4.30;1.93;;;;;;;;;;5034689;28;20343;-72
2023/05/07 05:21:27;;;;;;;3.80;2.17;;;;;;;;;;5024247;28;20030;-72
2023/05/07 05:23:52;;;;;;;3.05;1.63;;;;;;;;;;5032272;28;20029;-72
2023/05/07 05:26:18;;;;;;;4.50;2.53;;;;;;;;;;5028023;28;20687;-72
2023/05/07 05:28:43;;;;;;;6.35;1.90;;;;;;;;;;5032256;28;20017;-72
2023/05/07 05:31:08;;;;;;;5.07;1.67;;;;;;;;;;5030352;28;20025;-72
2023/05/07 05:33:33;;;;;;;4.30;1.70;;;;;;;;;;5030716;28;20393;-72
2023/05/07 05:35:59;;;;;;;3.93;1.70;;;;;;;;;;5033061;28;20326;-72
2023/05/07 05:38:24;;;;;;;5.57;1.53;;;;;;;;;;5034756;28;20263;-72
2023/05/07 05:40:49;;;;;;;4.43;2.22;;;;;;;;;;5029321;28;20267;-72
2023/05/07 05:43:14;;;;;;;6.97;2.00;;;;;;;;;;5031520;28;20077;-72
2023/05/07 05:45:40;;;;;;;4.53;2.30;;;;;;;;;;5030964;28;20025;-72
2023/05/07 05:48:05;;;;;;;6.22;1.95;;;;;;;;;;5029470;28;20649;-72
2023/05/07 05:50:30;;;;;;;5.43;1.90;;;;;;;;;;5036440;28;20040;-72
2023/05/07 05:52:56;;;;;;;2.20;1.40;;;;;;;;;;5027532;28;20404;-72
2023/05/07 05:55:21;;;;;;;3.33;1.38;;;;;;;;;;5030560;28;20271;-72
2023/05/07 05:57:47;;;;;;;6.68;1.50;;;;;;;;;;5034800;28;20506;-72
2023/05/07 06:00:12;;;;;;;2.47;1.50;;;;;;;;;;5023958;28;20017;-72
2023/05/07 06:02:38;;;;;;;3.75;1.60;;;;;;;;;;5031765;28;20033;-72
2023/05/07 06:05:03;;;;;;;7.20;1.73;;;;;;;;;;5023960;28;20027;-72
2023/05/07 06:07:28;;;;;;;2.17;1.23;;;;;;;;;;5029553;28;20287;-72
2023/05/07 06:09:54;;;;;;;6.07;1.60;;;;;;;;;;5033230;28;20037;-72
2023/05/07 06:12:20;;;;;;;4.33;1.30;;;;;;;;;;5027322;28;20314;-71
2023/05/07 06:14:45;;;;;;;2.10;1.55;;;;;;;;;;5028666;28;20367;-71
2023/05/07 06:17:10;;;;;;;2.40;1.33;;;;;;;;;;5032735;28;20108;-71
2023/05/07 06:19:36;;;;;;;3.97;1.60;;;;;;;;;;5022459;28;20072;-71
2023/05/07 06:22:01;;;;;;;4.30;1.67;;;;;;;;;;5032800;28;20260;-72
2023/05/07 06:24:27;;;;;;;2.50;1.50;;;;;;;;;;5027572;28;20709;-72
2023/05/07 06:26:52;;;;;;;7.03;1.70;;;;;;;;;;5029465;28;20544;-72
2023/05/07 06:29:17;;;;;;;3.13;1.40;;;;;;;;;;5027229;28;20526;-72
2023/05/07 06:31:42;;;;;;;5.60;1.38;;;;;;;;;;5025510;28;20276;-72
2023/05/07 06:34:08;;;;;;;3.13;1.43;;;;;;;;;;5025437;28;20033;-72
2023/05/07 06:36:33;;;;;;;3.40;1.27;;;;;;;;;;5027582;28;20268;-72
2023/05/07 06:38:58;;;;;;;6.10;1.57;;;;;;;;;;5026264;28;20524;-72
2023/05/07 06:41:23;;;;;;;3.90;1.20;;;;;;;;;;5027054;28;20333;-72
2023/05/07 06:43:48;;;;;;;2.43;1.40;;;;;;;;;;5027926;28;20272;-72
2023/05/07 06:46:13;;;;;;;2.70;1.60;;;;;;;;;;5031920;28;20279;-72
2023/05/07 06:48:39;;;;;;;4.87;1.30;;;;;;;;;;5025986;28;20334;-72
2023/05/07 06:51:04;;;;;;;5.25;1.50;;;;;;;;;;5035138;28;20474;-72
2023/05/07 06:53:30;;;;;;;4.93;1.40;;;;;;;;;;5029793;28;20053;-72
2023/05/07 06:55:55;;;;;;;2.95;1.70;;;;;;;;;;5026327;28;20383;-72
2023/05/07 06:58:21;;;;;;;1.88;1.13;;;;;;;;;;5032192;28;20021;-72
2023/05/07 07:00:46;;;;;;;2.60;1.30;;;;;;;;;;5023949;28;20144;-72
2023/05/07 07:03:11;;;;;;;3.30;1.23;;;;;;;;;;5030403;28;20291;-72
2023/05/07 07:05:36;;;;;;;1.52;1.10;;;;;;;;;;5025618;28;20510;-72
2023/05/07 07:08:01;;;;;;;1.55;1.05;;;;;;;;;;5026825;28;20080;-72
2023/05/07 07:10:27;;;;;;;2.33;1.57;;;;;;;;;;5028350;28;20029;-72
2023/05/07 07:12:52;;;;;;;5.40;1.60;;;;;;;;;;5021785;28;20290;-72
2023/05/07 07:15:17;;;;;;;4.13;1.20;;;;;;;;;;5027403;28;20023;-72
2023/05/07 07:17:43;;;;;;;3.03;1.33;;;;;;;;;;5028955;28;20104;-72
2023/05/07 07:20:08;;;;;;;3.17;1.43;;;;;;;;;;5027897;28;20064;-72
2023/05/07 07:22:33;;;;;;;3.10;1.05;;;;;;;;;;5026080;28;20027;-72
2023/05/07 07:24:58;;;;;;;3.85;1.20;;;;;;;;;;5025997;28;20101;-72
2023/05/07 07:27:24;;;;;;;2.57;1.60;;;;;;;;;;5022184;28;20026;-72
2023/05/07 07:29:49;;;;;;;1.90;1.37;;;;;;;;;;5026786;28;20319;-72
2023/05/07 07:32:14;;;;;;;3.03;1.27;;;;;;;;;;5026570;28;20272;-72
2023/05/07 07:34:40;;;;;;;4.05;1.50;;;;;;;;;;5027553;28;20041;-71
2023/05/07 07:37:06;;;;;;;2.13;1.10;;;;;;;;;;5034354;28;20025;-71
2023/05/07 07:39:34;;;;;;;1.27;0.95;;;;;;;;;;5025817;28;20064;-71
2023/05/07 07:42:00;;;;;;;2.78;1.25;;;;;;;;;;5031872;28;20021;-71
2023/05/07 07:44:25;;;;;;;2.45;1.10;;;;;;;;;;5029806;28;20067;-71
2023/05/07 07:46:50;;;;;;;1.42;0.80;;;;;;;;;;5028398;28;20029;-71
2023/05/07 07:49:15;;;;;;;1.30;0.98;;;;;;;;;;5031736;28;20079;-71
2023/05/07 07:51:41;;;;;;;2.20;1.03;;;;;;;;;;5030314;28;20072;-71
2023/05/07 07:54:06;;;;;;;3.17;1.40;;;;;;;;;;5031221;28;20290;-71
2023/05/07 07:56:33;;;;;;;1.00;0.77;;;;;;;;;;5035888;28;20017;-71
2023/05/07 07:58:58;;;;;;;6.60;1.42;;;;;;;;;;5036770;28;20537;-71
2023/05/07 08:01:23;;;;;;;2.92;1.02;;;;;;;;;;5032167;28;20039;-71
2023/05/07 08:03:48;;;;;;;4.43;1.13;;;;;;;;;;5032034;28;20032;-71
2023/05/07 08:06:14;;;;;;;2.30;1.37;;;;;;;;;;5030961;28;20390;-71
2023/05/07 08:08:39;;;;;;;3.97;1.40;;;;;;;;;;5031994;28;20033;-71
2023/05/07 08:11:04;;;;;;;7.03;1.23;;;;;;;;;;5030536;28;20268;-71
2023/05/07 08:13:29;;;;;;;2.73;0.83;;;;;;;;;;5029332;28;20030;-70
2023/05/07 08:15:54;;;;;;;1.77;1.00;;;;;;;;;;5027708;28;20037;-71
2023/05/07 08:18:19;;;;;;;2.67;1.03;;;;;;;;;;5035966;28;20280;-71
2023/05/07 08:20:45;;;;;;;2.60;0.83;;;;;;;;;;5025679;28;20021;-71
2023/05/07 08:23:10;;;;;;;1.17;0.77;;;;;;;;;;5021914;28;20657;-71
2023/05/07 08:25:35;;;;;;;5.20;1.20;;;;;;;;;;5031844;28;20272;-71
2023/05/07 08:28:01;;;;;;;2.97;1.40;;;;;;;;;;5029433;28;20025;-72
2023/05/07 08:30:26;;;;;;;3.33;1.08;;;;;;;;;;5032032;28;20026;-72
2023/05/07 08:32:51;;;;;;;4.22;1.20;;;;;;;;;;5024815;28;20032;-72
2023/05/07 08:35:17;;;;;;;3.70;1.60;;;;;;;;;;5031499;28;20013;-72
2023/05/07 08:37:42;;;;;;;5.38;1.20;;;;;;;;;;5025128;28;20025;-72
2023/05/07 08:40:07;;;;;;;5.05;1.40;;;;;;;;;;5027057;28;20071;-72
2023/05/07 08:42:35;;;;;;;2.20;1.58;;;;;;;;;;5028105;28;20184;-72
2023/05/07 08:45:02;;;;;;;2.40;0.95;;;;;;;;;;5026654;28;20009;-72
2023/05/07 08:47:31;;;;;;;3.80;1.42;;;;;;;;;;5026774;28;20025;-72
2023/05/07 08:49:56;;;;;;;3.38;1.13;;;;;;;;;;5030233;28;20037;-72
2023/05/07 08:52:21;;;;;;;5.15;2.13;;;;;;;;;;5028702;28;20406;-71
2023/05/07 08:54:47;;;;;;;1.67;1.00;;;;;;;;;;5027980;28;20100;-72
2023/05/07 08:57:12;;;;;;;2.35;1.00;;;;;;;;;;5032916;28;20032;-72
2023/05/07 08:59:37;;;;;;;6.43;1.40;;;;;;;;;;5031236;28;20073;-72
2023/05/07 09:02:03;;;;;;;3.83;1.20;;;;;;;;;;5026162;28;20021;-72
2023/05/07 09:04:28;;;;;;;2.37;1.10;;;;;;;;;;5031937;28;20562;-70
2023/05/07 09:06:53;;;;;;;3.03;0.88;;;;;;;;;;5023259;28;20029;-70
2023/05/07 09:09:18;;;;;;;6.90;2.10;;;;;;;;;;5032247;28;20053;-70
2023/05/07 09:11:43;;;;;;;5.77;1.13;;;;;;;;;;5030298;28;20422;-70
2023/05/07 09:14:09;;;;;;;3.33;1.10;;;;;;;;;;5030320;28;20029;-70
2023/05/07 09:16:34;;;;;;;2.38;1.45;;;;;;;;;;5026819;28;20037;-70
2023/05/07 09:19:00;;;;;;;3.13;1.20;;;;;;;;;;5028003;28;20520;-70
2023/05/07 09:21:25;;;;;;;2.22;1.20;;;;;;;;;;5028904;28;20013;-70
2023/05/07 09:23:51;;;;;;;9.52;1.50;;;;;;;;;;5031878;28;20063;-70
2023/05/07 09:26:17;;;;;;;4.15;1.35;;;;;;;;;;5031489;28;20520;-70
2023/05/07 09:28:42;;;;;;;2.15;1.00;;;;;;;;;;5031882;28;20479;-70
2023/05/07 09:31:08;;;;;;;3.27;1.20;;;;;;;;;;5030895;28;20055;-70
2023/05/07 09:33:33;;;;;;;4.72;1.30;;;;;;;;;;5029370;28;20371;-70
2023/05/07 09:36:01;;;;;;;2.90;1.15;;;;;;;;;;5031857;28;20024;-70
2023/05/07 09:38:28;;;;;;;2.65;1.23;;;;;;;;;;5031944;28;20018;-70
2023/05/07 09:41:03;;;;;;;3.50;0.90;;;;;;;;;;5031434;28;20022;-70
2023/05/07 09:43:31;;;;;;;3.22;0.90;;;;;;;;;;5031650;28;20091;-70
2023/05/07 09:45:57;;;;;;;5.00;1.20;;;;;;;;;;5030767;28;20029;-70
2023/05/07 09:48:23;;;;;;;1.77;1.00;;;;;;;;;;5031564;28;20026;-70
2023/05/07 09:50:49;;;;;;;3.20;1.45;;;;;;;;;;5033969;28;20083;-70
2023/05/07 09:53:15;;;;;;;2.55;1.33;;;;;;;;;;5031371;28;20022;-70
2023/05/07 09:55:41;;;;;;;3.47;1.50;;;;;;;;;;5031311;28;20028;-70
2023/05/07 09:58:06;;;;;;;3.83;1.00;;;;;;;;;;5030530;28;20017;-70
2023/05/07 10:00:32;;;;;;;1.60;1.17;;;;;;;;;;5029314;28;20022;-70
2023/05/07 10:02:58;;;;;;;2.08;1.00;;;;;;;;;;5031478;28;20045;-70
2023/05/07 10:05:23;;;;;;;6.28;1.27;;;;;;;;;;5031638;28;20395;-70
2023/05/07 10:07:49;;;;;;;2.42;1.08;;;;;;;;;;5031249;28;20029;-71
2023/05/07 10:10:15;;;;;;;2.17;1.23;;;;;;;;;;5031532;28;20024;-70
2023/05/07 10:12:40;;;;;;;2.35;1.00;;;;;;;;;;5029403;28;20020;-70
2023/05/07 10:15:06;;;;;;;5.22;1.00;;;;;;;;;;5030022;28;20390;-70
2023/05/07 10:17:31;;;;;;;7.38;1.20;;;;;;;;;;5031231;28;20068;-70
2023/05/07 10:19:56;;;;;;;1.60;0.90;;;;;;;;;;5031002;28;20018;-70
2023/05/07 10:22:22;;;;;;;5.27;1.17;;;;;;;;;;5024560;28;20044;-70
2023/05/07 10:24:48;;;;;;;3.28;1.38;;;;;;;;;;5031215;28;21056;-70
2023/05/07 10:27:15;;;;;;;4.65;1.00;;;;;;;;;;5028039;28;20018;-70
2023/05/07 10:29:53;;;;;;;2.97;1.50;;;;;;;;;;5022987;28;20025;-70
2023/05/07 10:32:18;;;;;;;2.00;1.05;;;;;;;;;;5030977;28;20018;-70
2023/05/07 10:34:45;;;;;;;3.10;1.00;;;;;;;;;;5030086;28;20017;-70
2023/05/07 10:37:11;;;;;;;2.97;1.00;;;;;;;;;;5032348;28;20033;-70
2023/05/07 10:39:37;;;;;;;1.42;1.05;;;;;;;;;;5031886;28;20379;-70
2023/05/07 10:42:08;;;;;;;2.90;0.90;;;;;;;;;;5031029;28;20024;-70
2023/05/07 10:44:35;;;;;;;1.75;0.88;;;;;;;;;;5030515;28;20032;-70
2023/05/07 10:47:08;;;;;;;3.30;1.15;;;;;;;;;;5026309;28;20021;-70
2023/05/07 10:49:34;;;;;;;1.58;0.80;;;;;;;;;;5027548;28;20079;-70
2023/05/07 10:52:26;;;;;;;4.03;0.82;;;;;;;;;;5030191;28;20112;-71
2023/05/07 10:55:10;;;;;;;2.30;0.90;;;;;;;;;;5022374;28;20032;-70
2023/05/07 10:57:35;;;;;;;1.35;0.75;;;;;;;;;;5026893;28;20025;-70
2023/05/07 11:00:01;;;;;;;1.05;0.70;;;;;;;;;;5026136;28;20021;-70
2023/05/07 11:02:58;;;;;;;1.60;0.80;;;;;;;;;;5029816;28;20070;-70
2023/05/07 11:05:23;;;;;;;1.92;1.00;;;;;;;;;;5027241;28;20471;-70
2023/05/07 11:08:00;;;;;;;2.15;1.20;;;;;;;;;;5030067;28;20112;-71
2023/05/07 11:10:44;;;;;;;2.67;1.40;;;;;;;;;;5025658;28;20026;-71
2023/05/07 11:13:09;;;;;;;1.45;0.82;;;;;;;;;;5030343;28;20033;-70
2023/05/07 11:15:43;;;;;;;2.27;1.10;;;;;;;;;;5030778;28;20032;-70
2023/05/07 11:18:08;;;;;;;2.03;1.05;;;;;;;;;;5029720;28;20371;-70
2023/05/07 11:20:50;;;;;;;3.30;1.30;;;;;;;;;;5029836;28;20036;-70
2023/05/07 11:23:34;;;;;;;2.72;1.00;;;;;;;;;;5029976;28;20331;-70
2023/05/07 11:26:02;;;;;;;5.85;0.90;;;;;;;;;;5028488;28;20027;-70
2023/05/07 11:28:28;;;;;;;1.00;0.70;;;;;;;;;;5031240;28;20386;-70
2023/05/07 11:30:54;;;;;;;2.90;1.00;;;;;;;;;;5030390;28;20024;-71
2023/05/07 11:33:19;;;;;;;5.22;0.95;;;;;;;;;;5033135;28;20040;-70
2023/05/07 11:35:45;;;;;;;1.52;0.82;;;;;;;;;;5028487;28;20548;-70
2023/05/07 11:38:11;;;;;;;1.67;0.88;;;;;;;;;;5028592;28;20006;-70
2023/05/07 11:40:48;;;;;;;1.67;0.95;;;;;;;;;;5029384;28;20029;-70
2023/05/07 11:43:13;;;;;;;1.95;0.73;;;;;;;;;;5029833;28;20025;-70
2023/05/07 11:45:38;;;;;;;5.38;1.00;;;;;;;;;;5029550;28;20395;-70
2023/05/07 11:48:04;;;;;;;2.80;1.07;;;;;;;;;;5029667;28;20017;-70
2023/05/07 11:50:29;;;;;;;2.20;1.02;;;;;;;;;;5034925;28;20278;-70
2023/05/07 11:52:55;;;;;;;1.55;0.90;;;;;;;;;;5028664;28;20054;-70
2023/05/07 11:55:21;;;;;;;2.23;1.00;;;;;;;;;;5029761;28;20520;-71
2023/05/07 11:57:46;;;;;;;3.97;0.93;;;;;;;;;;5028979;28;20658;-70
2023/05/07 12:00:12;;;;;;;3.33;1.20;;;;;;;;;;5029745;28;20075;-70
2023/05/07 12:02:37;;;;;;;4.22;1.13;;;;;;;;;;5029477;28;20036;-70
2023/05/07 12:05:02;;;;;;;3.00;0.93;;;;;;;;;;5030748;28;20017;-70
2023/05/07 12:07:28;;;;;;;1.35;0.95;;;;;;;;;;5030228;28;20665;-70
2023/05/07 12:09:53;;;;;;;3.57;0.87;;;;;;;;;;5022099;28;20029;-71
2023/05/07 12:12:18;;;;;;;1.95;0.80;;;;;;;;;;5024393;28;20307;-71
2023/05/07 12:14:45;;;;;;;5.22;1.40;;;;;;;;;;5025116;28;20018;-72
2023/05/07 12:17:10;;;;;;;1.40;0.80;;;;;;;;;;5025628;28;20446;-71
2023/05/07 12:19:36;;;;;;;1.70;0.95;;;;;;;;;;5026732;28;20057;-71
2023/05/07 12:22:05;;;;;;;4.43;1.10;;;;;;;;;;5028210;28;20052;-71
2023/05/07 12:24:43;;;;;;;5.05;1.10;;;;;;;;;;5032517;28;20021;-71
2023/05/07 12:27:09;;;;;;;5.22;0.98;;;;;;;;;;5028700;28;20014;-71
2023/05/07 12:29:34;;;;;;;1.38;1.17;;;;;;;;;;5029862;28;20036;-71
2023/05/07 12:31:59;;;;;;;1.77;1.10;;;;;;;;;;5033712;28;20042;-71
2023/05/07 12:34:24;;;;;;;5.03;1.00;;;;;;;;;;5032795;28;20024;-71
2023/05/07 12:36:50;;;;;;;2.63;1.63;;;;;;;;;;5033045;28;20268;-71
2023/05/07 12:39:15;;;;;;;2.93;1.10;;;;;;;;;;5032610;28;20245;-71
2023/05/07 12:41:54;;;;;;;1.67;0.97;;;;;;;;;;5030189;28;20283;-71
2023/05/07 12:44:19;;;;;;;2.47;1.20;;;;;;;;;;5032658;28;20260;-71
2023/05/07 12:46:46;;;;;;;4.70;0.98;;;;;;;;;;5032385;28;20083;-71
2023/05/07 12:49:11;;;;;;;1.60;0.88;;;;;;;;;;5032465;28;20378;-70
2023/05/07 12:51:37;;;;;;;1.50;1.00;;;;;;;;;;5031589;28;20029;-71
2023/05/07 12:54:02;;;;;;;2.00;0.83;;;;;;;;;;5032092;28;20021;-71
2023/05/07 12:56:30;;;;;;;1.65;0.90;;;;;;;;;;5031905;28;20489;-71
2023/05/07 12:58:57;;;;;;;1.90;1.00;;;;;;;;;;5035255;28;20378;-71
2023/05/07 13:01:28;;;;;;;3.53;1.20;;;;;;;;;;5029539;28;20018;-71
2023/05/07 13:03:53;;;;;;;2.00;1.23;;;;;;;;;;5027994;28;20021;-71
2023/05/07 13:06:18;;;;;;;2.43;0.93;;;;;;;;;;5032035;28;20025;-70
2023/05/07 13:08:43;;;;;;;1.10;0.77;;;;;;;;;;5030383;28;20021;-70
2023/05/07 13:11:09;;;;;;;3.45;0.90;;;;;;;;;;5030750;28;20264;-70
2023/05/07 13:13:35;;;;;;;2.30;1.52;;;;;;;;;;5032043;28;20080;-70
2023/05/07 13:16:01;;;;;;;4.93;1.00;;;;;;;;;;5037623;28;20033;-70
2023/05/07 13:18:27;;;;;;;2.25;1.38;;;;;;;;;;5027648;28;20395;-70
2023/05/07 13:20:55;;;;;;;2.42;0.85;;;;;;;;;;5029523;28;20084;-71
2023/05/07 13:23:20;;;;;;;3.22;1.20;;;;;;;;;;5026749;28;20029;-71
2023/05/07 13:25:45;;;;;;;1.77;0.80;;;;;;;;;;5027695;28;20478;-70
2023/05/07 13:28:11;;;;;;;3.53;1.00;;;;;;;;;;5022417;28;20761;-70
2023/05/07 13:30:36;;;;;;;1.98;1.00;;;;;;;;;;5031264;28;20057;-70
2023/05/07 13:33:01;;;;;;;5.57;1.90;;;;;;;;;;5039452;28;20021;-70
2023/05/07 13:35:27;;;;;;;1.15;0.82;;;;;;;;;;5030994;28;20271;-70
2023/05/07 13:37:52;;;;;;;6.95;1.20;;;;;;;;;;5027002;28;20017;-70
2023/05/07 13:40:21;;;;;;;1.63;0.88;;;;;;;;;;5026222;28;20017;-70
2023/05/07 13:42:46;;;;;;;2.88;0.93;;;;;;;;;;5029049;28;20024;-70
2023/05/07 13:45:13;;;;;;;1.70;1.00;;;;;;;;;;5028806;28;20033;-70
2023/05/07 13:47:39;;;;;;;4.45;1.45;;;;;;;;;;5031432;28;20021;-70
2023/05/07 13:50:05;;;;;;;3.58;1.30;;;;;;;;;;5032972;28;20028;-71
2023/05/07 13:52:30;;;;;;;5.00;1.15;;;;;;;;;;5030090;28;20122;-71
2023/05/07 13:54:56;;;;;;;2.60;1.20;;;;;;;;;;5031122;28;20071;-71
2023/05/07 13:57:21;;;;;;;4.35;1.27;;;;;;;;;;5031421;28;20256;-71
2023/05/07 13:59:46;;;;;;;2.97;1.10;;;;;;;;;;5031274;28;20022;-70
2023/05/07 14:02:11;;;;;;;2.50;1.10;;;;;;;;;;5028951;28;20017;-70
2023/05/07 14:04:37;;;;;;;5.10;1.23;;;;;;;;;;5032909;28;20071;-70
2023/05/07 14:07:02;;;;;;;5.13;1.60;;;;;;;;;;5031032;28;20394;-70
2023/05/07 14:09:27;;;;;;;3.80;1.40;;;;;;;;;;5030268;28;20079;-70
2023/05/07 14:11:53;;;;;;;3.13;1.47;;;;;;;;;;5027814;28;20022;-70
2023/05/07 14:14:18;;;;;;;3.80;1.50;;;;;;;;;;5025923;28;20049;-71
2023/05/07 14:16:44;;;;;;;6.13;2.42;;;;;;;;;;5031946;28;20379;-71
2023/05/07 14:19:09;;;;;;;2.83;1.38;;;;;;;;;;5031898;28;20096;-71
2023/05/07 14:21:35;;;;;;;1.93;1.20;;;;;;;;;;5029229;28;20116;-71
2023/05/07 14:24:00;;;;;;;17.30;3.37;;;;;;;;;;5034598;28;20018;-71
2023/05/07 14:26:26;;;;;;;3.38;1.50;;;;;;;;;;5029666;28;20014;-71
2023/05/07 14:28:52;;;;;;;2.75;1.60;;;;;;;;;;5034341;28;20076;-71
2023/05/07 14:31:17;;;;;;;2.15;1.15;;;;;;;;;;5025704;28;20017;-71
2023/05/07 14:33:42;;;;;;;3.43;1.40;;;;;;;;;;5026881;28;20104;-71
2023/05/07 14:36:07;;;;;;;5.10;1.97;;;;;;;;;;5029659;28;20787;-71